sensor_id;sensor_type;location;lat;lon;timestamp;P1;durP1;ratioP1;P2;durP2;ratioP2
59099;SDS011;44884;52.730;6.964;2022-08-27T00:02:23;2.15;;;1.13;;
59099;SDS011;44884;52.730;6.964;2022-08-27T00:04:49;2.53;;;1.25;;
59099;SDS011;44884;52.730;6.964;2022-08-27T00:07:16;6.28;;;1.52;;
59099;SDS011;44884;52.730;6.964;2022-08-27T00:09:42;3.47;;;1.00;;
59099;SDS011;44884;52.730;6.964;2022-08-27T00:12:08;3.22;;;1.25;;
59099;SDS011;44884;52.730;6.964;2022-08-27T00:14:35;5.00;;;1.58;;
59099;SDS011;44884;52.730;6.964;2022-08-27T00:17:01;3.80;;;0.90;;
59099;SDS011;44884;52.730;6.964;2022-08-27T00:19:29;9.30;;;1.45;;
59099;SDS011;44884;52.730;6.964;2022-08-27T00:21:55;5.72;;;1.20;;
59099;SDS011;44884;52.730;6.964;2022-08-27T00:24:21;3.95;;;1.40;;
59099;SDS011;44884;52.730;6.964;2022-08-27T00:26:47;2.38;;;1.10;;
59099;SDS011;44884;52.730;6.964;2022-08-27T00:29:14;2.67;;;1.15;;
59099;SDS011;44884;52.730;6.964;2022-08-27T00:31:40;7.90;;;1.40;;
59099;SDS011;44884;52.730;6.964;2022-08-27T00:34:06;2.30;;;1.20;;
59099;SDS011;44884;52.730;6.964;2022-08-27T00:36:33;2.40;;;1.08;;
59099;SDS011;44884;52.730;6.964;2022-08-27T00:38:59;3.88;;;1.13;;
59099;SDS011;44884;52.730;6.964;2022-08-27T00:41:25;3.75;;;1.00;;
59099;SDS011;44884;52.730;6.964;2022-08-27T00:43:55;5.80;;;1.27;;
59099;SDS011;44884;52.730;6.964;2022-08-27T00:46:24;3.10;;;1.02;;
59099;SDS011;44884;52.730;6.964;2022-08-27T00:48:52;1.80;;;1.00;;
59099;SDS011;44884;52.730;6.964;2022-08-27T00:51:19;4.53;;;1.30;;
59099;SDS011;44884;52.730;6.964;2022-08-27T00:53:46;2.75;;;1.15;;
59099;SDS011;44884;52.730;6.964;2022-08-27T00:56:15;2.53;;;1.38;;
59099;SDS011;44884;52.730;6.964;2022-08-27T00:58:45;2.17;;;1.17;;
59099;SDS011;44884;52.730;6.964;2022-08-27T01:01:13;3.00;;;1.27;;
59099;SDS011;44884;52.730;6.964;2022-08-27T01:03:40;3.05;;;1.10;;
59099;SDS011;44884;52.730;6.964;2022-08-27T01:06:09;2.90;;;1.30;;
59099;SDS011;44884;52.730;6.964;2022-08-27T01:08:36;3.55;;;1.17;;
59099;SDS011;44884;52.730;6.964;2022-08-27T01:11:03;3.33;;;1.00;;
59099;SDS011;44884;52.730;6.964;2022-08-27T01:13:30;2.75;;;1.13;;
59099;SDS011;44884;52.730;6.964;2022-08-27T01:15:57;2.88;;;1.15;;
59099;SDS011;44884;52.730;6.964;2022-08-27T01:18:24;7.85;;;1.38;;
59099;SDS011;44884;52.730;6.964;2022-08-27T01:25:43;3.15;;;1.30;;
59099;SDS011;44884;52.730;6.964;2022-08-27T01:28:09;4.07;;;0.90;;
59099;SDS011;44884;52.730;6.964;2022-08-27T01:30:37;1.70;;;1.27;;
59099;SDS011;44884;52.730;6.964;2022-08-27T01:33:11;4.78;;;1.20;;
59099;SDS011;44884;52.730;6.964;2022-08-27T01:35:39;3.08;;;1.17;;
59099;SDS011;44884;52.730;6.964;2022-08-27T01:38:05;1.52;;;1.35;;
59099;SDS011;44884;52.730;6.964;2022-08-27T01:40:31;2.53;;;1.10;;
59099;SDS011;44884;52.730;6.964;2022-08-27T01:42:57;4.10;;;1.50;;
59099;SDS011;44884;52.730;6.964;2022-08-27T01:45:28;3.53;;;1.90;;
59099;SDS011;44884;52.730;6.964;2022-08-27T01:47:54;3.35;;;1.17;;
59099;SDS011;44884;52.730;6.964;2022-08-27T01:50:26;2.03;;;1.25;;
59099;SDS011;44884;52.730;6.964;2022-08-27T01:52:53;2.35;;;1.20;;
59099;SDS011;44884;52.730;6.964;2022-08-27T01:55:21;2.72;;;1.13;;
59099;SDS011;44884;52.730;6.964;2022-08-27T01:57:48;2.28;;;1.02;;
59099;SDS011;44884;52.730;6.964;2022-08-27T02:00:16;1.58;;;1.00;;
59099;SDS011;44884;52.730;6.964;2022-08-27T02:02:44;1.15;;;0.95;;
59099;SDS011;44884;52.730;6.964;2022-08-27T02:05:10;1.67;;;1.00;;
59099;SDS011;44884;52.730;6.964;2022-08-27T02:07:37;1.40;;;0.80;;
59099;SDS011;44884;52.730;6.964;2022-08-27T02:10:04;1.85;;;1.02;;
59099;SDS011;44884;52.730;6.964;2022-08-27T02:12:30;5.88;;;1.10;;
59099;SDS011;44884;52.730;6.964;2022-08-27T02:14:56;2.13;;;1.05;;
59099;SDS011;44884;52.730;6.964;2022-08-27T02:17:22;2.08;;;1.10;;
59099;SDS011;44884;52.730;6.964;2022-08-27T02:19:48;1.50;;;1.02;;
59099;SDS011;44884;52.730;6.964;2022-08-27T02:22:14;1.98;;;1.00;;
59099;SDS011;44884;52.730;6.964;2022-08-27T02:24:40;9.70;;;1.08;;
59099;SDS011;44884;52.730;6.964;2022-08-27T02:27:07;3.17;;;1.30;;
59099;SDS011;44884;52.730;6.964;2022-08-27T02:29:33;1.20;;;0.80;;
59099;SDS011;44884;52.730;6.964;2022-08-27T02:31:59;2.20;;;1.25;;
59099;SDS011;44884;52.730;6.964;2022-08-27T02:34:26;2.20;;;1.30;;
59099;SDS011;44884;52.730;6.964;2022-08-27T02:36:52;1.20;;;0.93;;
59099;SDS011;44884;52.730;6.964;2022-08-27T02:39:19;4.22;;;1.58;;
59099;SDS011;44884;52.730;6.964;2022-08-27T02:41:45;3.17;;;0.93;;
59099;SDS011;44884;52.730;6.964;2022-08-27T02:44:12;1.33;;;0.90;;
59099;SDS011;44884;52.730;6.964;2022-08-27T02:46:38;3.10;;;1.00;;
59099;SDS011;44884;52.730;6.964;2022-08-27T02:49:05;1.63;;;1.15;;
59099;SDS011;44884;52.730;6.964;2022-08-27T02:51:33;2.13;;;1.38;;
59099;SDS011;44884;52.730;6.964;2022-08-27T02:54:00;2.88;;;1.52;;
59099;SDS011;44884;52.730;6.964;2022-08-27T02:56:26;2.00;;;1.10;;
59099;SDS011;44884;52.730;6.964;2022-08-27T02:58:52;1.10;;;1.00;;
59099;SDS011;44884;52.730;6.964;2022-08-27T03:01:19;1.88;;;0.90;;
59099;SDS011;44884;52.730;6.964;2022-08-27T03:03:45;1.90;;;1.13;;
59099;SDS011;44884;52.730;6.964;2022-08-27T03:06:11;1.65;;;0.90;;
59099;SDS011;44884;52.730;6.964;2022-08-27T03:08:37;2.25;;;1.20;;
59099;SDS011;44884;52.730;6.964;2022-08-27T03:11:03;2.78;;;1.98;;
59099;SDS011;44884;52.730;6.964;2022-08-27T03:13:34;2.85;;;0.80;;
59099;SDS011;44884;52.730;6.964;2022-08-27T03:16:00;2.80;;;1.38;;
59099;SDS011;44884;52.730;6.964;2022-08-27T03:18:26;2.28;;;1.38;;
59099;SDS011;44884;52.730;6.964;2022-08-27T03:20:53;3.05;;;1.10;;
59099;SDS011;44884;52.730;6.964;2022-08-27T03:23:20;2.78;;;1.30;;
59099;SDS011;44884;52.730;6.964;2022-08-27T03:25:49;1.85;;;0.90;;
59099;SDS011;44884;52.730;6.964;2022-08-27T03:28:19;3.60;;;1.20;;
59099;SDS011;44884;52.730;6.964;2022-08-27T03:30:47;1.55;;;1.00;;
59099;SDS011;44884;52.730;6.964;2022-08-27T03:33:13;2.80;;;0.90;;
59099;SDS011;44884;52.730;6.964;2022-08-27T03:35:39;1.75;;;1.10;;
59099;SDS011;44884;52.730;6.964;2022-08-27T03:38:06;2.08;;;0.88;;
59099;SDS011;44884;52.730;6.964;2022-08-27T03:40:32;2.45;;;1.30;;
59099;SDS011;44884;52.730;6.964;2022-08-27T03:42:58;3.13;;;1.20;;
59099;SDS011;44884;52.730;6.964;2022-08-27T03:45:24;1.15;;;1.05;;
59099;SDS011;44884;52.730;6.964;2022-08-27T03:47:52;3.05;;;0.90;;
59099;SDS011;44884;52.730;6.964;2022-08-27T03:50:40;3.20;;;1.48;;
59099;SDS011;44884;52.730;6.964;2022-08-27T03:53:07;2.08;;;1.10;;
59099;SDS011;44884;52.730;6.964;2022-08-27T03:55:33;4.75;;;1.13;;
59099;SDS011;44884;52.730;6.964;2022-08-27T03:57:59;3.40;;;1.50;;
59099;SDS011;44884;52.730;6.964;2022-08-27T04:00:25;1.27;;;1.00;;
59099;SDS011;44884;52.730;6.964;2022-08-27T04:02:51;5.53;;;0.88;;
59099;SDS011;44884;52.730;6.964;2022-08-27T04:05:19;2.70;;;1.20;;
59099;SDS011;44884;52.730;6.964;2022-08-27T04:07:45;2.28;;;1.10;;
59099;SDS011;44884;52.730;6.964;2022-08-27T04:10:11;7.13;;;1.63;;
59099;SDS011;44884;52.730;6.964;2022-08-27T04:12:38;2.38;;;1.10;;
59099;SDS011;44884;52.730;6.964;2022-08-27T04:15:05;2.13;;;1.27;;
59099;SDS011;44884;52.730;6.964;2022-08-27T04:17:31;2.00;;;1.35;;
59099;SDS011;44884;52.730;6.964;2022-08-27T04:19:57;1.50;;;0.88;;
59099;SDS011;44884;52.730;6.964;2022-08-27T04:22:26;1.17;;;1.00;;
59099;SDS011;44884;52.730;6.964;2022-08-27T04:24:52;2.42;;;1.10;;
59099;SDS011;44884;52.730;6.964;2022-08-27T04:27:19;4.13;;;1.60;;
59099;SDS011;44884;52.730;6.964;2022-08-27T04:29:45;1.83;;;1.17;;
59099;SDS011;44884;52.730;6.964;2022-08-27T04:32:11;2.67;;;1.23;;
59099;SDS011;44884;52.730;6.964;2022-08-27T04:34:38;2.83;;;1.45;;
59099;SDS011;44884;52.730;6.964;2022-08-27T04:37:04;2.63;;;1.38;;
59099;SDS011;44884;52.730;6.964;2022-08-27T04:39:30;4.80;;;1.48;;
59099;SDS011;44884;52.730;6.964;2022-08-27T04:41:57;2.80;;;1.02;;
59099;SDS011;44884;52.730;6.964;2022-08-27T04:44:25;3.22;;;1.48;;
59099;SDS011;44884;52.730;6.964;2022-08-27T04:46:55;3.08;;;1.30;;
59099;SDS011;44884;52.730;6.964;2022-08-27T04:49:22;2.55;;;1.08;;
59099;SDS011;44884;52.730;6.964;2022-08-27T04:51:48;1.88;;;1.20;;
59099;SDS011;44884;52.730;6.964;2022-08-27T04:54:14;4.50;;;1.15;;
59099;SDS011;44884;52.730;6.964;2022-08-27T04:56:41;2.20;;;1.23;;
59099;SDS011;44884;52.730;6.964;2022-08-27T04:59:07;3.15;;;1.27;;
59099;SDS011;44884;52.730;6.964;2022-08-27T05:01:34;4.88;;;1.40;;
59099;SDS011;44884;52.730;6.964;2022-08-27T05:04:00;5.55;;;1.60;;
59099;SDS011;44884;52.730;6.964;2022-08-27T05:06:27;5.88;;;1.70;;
59099;SDS011;44884;52.730;6.964;2022-08-27T05:08:53;2.90;;;1.50;;
59099;SDS011;44884;52.730;6.964;2022-08-27T05:11:20;3.90;;;1.33;;
59099;SDS011;44884;52.730;6.964;2022-08-27T05:13:46;3.70;;;1.10;;
59099;SDS011;44884;52.730;6.964;2022-08-27T05:16:14;4.45;;;1.30;;
59099;SDS011;44884;52.730;6.964;2022-08-27T05:18:40;5.38;;;1.63;;
59099;SDS011;44884;52.730;6.964;2022-08-27T05:21:07;5.53;;;1.15;;
59099;SDS011;44884;52.730;6.964;2022-08-27T05:23:33;2.30;;;1.35;;
59099;SDS011;44884;52.730;6.964;2022-08-27T05:26:00;3.15;;;1.50;;
59099;SDS011;44884;52.730;6.964;2022-08-27T05:28:27;2.05;;;1.27;;
59099;SDS011;44884;52.730;6.964;2022-08-27T05:30:54;5.20;;;1.25;;
59099;SDS011;44884;52.730;6.964;2022-08-27T05:33:22;4.97;;;1.23;;
59099;SDS011;44884;52.730;6.964;2022-08-27T05:35:49;2.38;;;1.38;;
59099;SDS011;44884;52.730;6.964;2022-08-27T05:38:16;2.13;;;1.50;;
59099;SDS011;44884;52.730;6.964;2022-08-27T05:40:42;3.05;;;1.20;;
59099;SDS011;44884;52.730;6.964;2022-08-27T05:43:09;5.45;;;1.65;;
59099;SDS011;44884;52.730;6.964;2022-08-27T05:45:40;3.67;;;1.05;;
59099;SDS011;44884;52.730;6.964;2022-08-27T05:48:06;3.25;;;1.48;;
59099;SDS011;44884;52.730;6.964;2022-08-27T05:50:34;7.95;;;1.52;;
59099;SDS011;44884;52.730;6.964;2022-08-27T05:53:00;3.67;;;1.15;;
59099;SDS011;44884;52.730;6.964;2022-08-27T05:55:26;4.18;;;1.58;;
59099;SDS011;44884;52.730;6.964;2022-08-27T05:57:52;4.13;;;1.40;;
59099;SDS011;44884;52.730;6.964;2022-08-27T06:00:18;14.40;;;2.00;;
59099;SDS011;44884;52.730;6.964;2022-08-27T06:03:03;10.30;;;1.35;;
59099;SDS011;44884;52.730;6.964;2022-08-27T06:05:29;10.98;;;1.52;;
59099;SDS011;44884;52.730;6.964;2022-08-27T06:07:55;6.25;;;1.60;;
59099;SDS011;44884;52.730;6.964;2022-08-27T06:10:21;3.47;;;1.60;;
59099;SDS011;44884;52.730;6.964;2022-08-27T06:12:47;9.48;;;1.45;;
59099;SDS011;44884;52.730;6.964;2022-08-27T06:15:13;4.35;;;1.30;;
59099;SDS011;44884;52.730;6.964;2022-08-27T06:17:39;3.42;;;1.50;;
59099;SDS011;44884;52.730;6.964;2022-08-27T06:20:05;3.75;;;1.50;;
59099;SDS011;44884;52.730;6.964;2022-08-27T06:22:34;3.10;;;1.17;;
59099;SDS011;44884;52.730;6.964;2022-08-27T06:25:00;10.25;;;2.45;;
59099;SDS011;44884;52.730;6.964;2022-08-27T06:27:26;6.88;;;1.70;;
59099;SDS011;44884;52.730;6.964;2022-08-27T06:29:52;6.75;;;1.85;;
59099;SDS011;44884;52.730;6.964;2022-08-27T06:32:18;8.85;;;1.92;;
59099;SDS011;44884;52.730;6.964;2022-08-27T06:34:44;13.65;;;2.35;;
59099;SDS011;44884;52.730;6.964;2022-08-27T06:37:11;11.88;;;1.95;;
59099;SDS011;44884;52.730;6.964;2022-08-27T06:39:37;9.10;;;2.10;;
59099;SDS011;44884;52.730;6.964;2022-08-27T06:42:03;4.10;;;1.63;;
59099;SDS011;44884;52.730;6.964;2022-08-27T06:44:30;10.05;;;1.88;;
59099;SDS011;44884;52.730;6.964;2022-08-27T06:46:56;5.28;;;1.40;;
59099;SDS011;44884;52.730;6.964;2022-08-27T06:49:22;8.40;;;1.85;;
59099;SDS011;44884;52.730;6.964;2022-08-27T06:51:48;10.57;;;2.22;;
59099;SDS011;44884;52.730;6.964;2022-08-27T06:54:15;4.85;;;1.45;;
59099;SDS011;44884;52.730;6.964;2022-08-27T06:56:42;13.45;;;2.80;;
59099;SDS011;44884;52.730;6.964;2022-08-27T06:59:09;5.80;;;1.50;;
59099;SDS011;44884;52.730;6.964;2022-08-27T07:01:37;5.38;;;1.98;;
59099;SDS011;44884;52.730;6.964;2022-08-27T07:04:05;3.40;;;1.50;;
59099;SDS011;44884;52.730;6.964;2022-08-27T07:06:32;14.13;;;2.88;;
59099;SDS011;44884;52.730;6.964;2022-08-27T07:08:59;11.40;;;2.15;;
59099;SDS011;44884;52.730;6.964;2022-08-27T07:11:25;8.60;;;1.92;;
59099;SDS011;44884;52.730;6.964;2022-08-27T07:13:52;8.63;;;2.65;;
59099;SDS011;44884;52.730;6.964;2022-08-27T07:16:19;8.73;;;1.90;;
59099;SDS011;44884;52.730;6.964;2022-08-27T07:18:47;4.18;;;1.30;;
59099;SDS011;44884;52.730;6.964;2022-08-27T07:21:13;6.00;;;1.77;;
59099;SDS011;44884;52.730;6.964;2022-08-27T07:23:39;5.28;;;1.95;;
59099;SDS011;44884;52.730;6.964;2022-08-27T07:26:09;4.88;;;1.98;;
59099;SDS011;44884;52.730;6.964;2022-08-27T07:28:36;5.05;;;2.05;;
59099;SDS011;44884;52.730;6.964;2022-08-27T07:31:03;5.97;;;2.13;;
59099;SDS011;44884;52.730;6.964;2022-08-27T07:33:29;5.38;;;1.35;;
59099;SDS011;44884;52.730;6.964;2022-08-27T07:35:55;10.75;;;1.90;;
59099;SDS011;44884;52.730;6.964;2022-08-27T07:38:21;6.43;;;1.88;;
59099;SDS011;44884;52.730;6.964;2022-08-27T07:40:47;3.30;;;1.17;;
59099;SDS011;44884;52.730;6.964;2022-08-27T07:43:13;5.80;;;1.60;;
59099;SDS011;44884;52.730;6.964;2022-08-27T07:46:11;4.43;;;1.20;;
59099;SDS011;44884;52.730;6.964;2022-08-27T07:48:37;3.38;;;1.85;;
59099;SDS011;44884;52.730;6.964;2022-08-27T07:51:03;2.83;;;1.55;;
59099;SDS011;44884;52.730;6.964;2022-08-27T07:53:32;7.25;;;2.55;;
59099;SDS011;44884;52.730;6.964;2022-08-27T07:56:06;4.45;;;1.50;;
59099;SDS011;44884;52.730;6.964;2022-08-27T07:58:32;3.97;;;1.30;;
59099;SDS011;44884;52.730;6.964;2022-08-27T08:00:58;7.45;;;1.58;;
59099;SDS011;44884;52.730;6.964;2022-08-27T08:03:24;8.15;;;1.52;;
59099;SDS011;44884;52.730;6.964;2022-08-27T08:05:51;4.38;;;1.40;;
59099;SDS011;44884;52.730;6.964;2022-08-27T08:08:21;4.47;;;1.30;;
59099;SDS011;44884;52.730;6.964;2022-08-27T08:10:47;9.73;;;1.90;;
59099;SDS011;44884;52.730;6.964;2022-08-27T08:13:14;11.68;;;2.08;;
59099;SDS011;44884;52.730;6.964;2022-08-27T08:15:42;5.90;;;2.50;;
59099;SDS011;44884;52.730;6.964;2022-08-27T08:18:08;3.45;;;1.45;;
59099;SDS011;44884;52.730;6.964;2022-08-27T08:20:34;5.40;;;1.67;;
59099;SDS011;44884;52.730;6.964;2022-08-27T08:23:00;5.30;;;1.48;;
59099;SDS011;44884;52.730;6.964;2022-08-27T08:25:27;11.23;;;2.20;;
59099;SDS011;44884;52.730;6.964;2022-08-27T08:27:53;5.47;;;1.95;;
59099;SDS011;44884;52.730;6.964;2022-08-27T08:30:20;4.03;;;1.30;;
59099;SDS011;44884;52.730;6.964;2022-08-27T08:32:46;5.07;;;1.35;;
59099;SDS011;44884;52.730;6.964;2022-08-27T08:35:12;7.40;;;1.75;;
59099;SDS011;44884;52.730;6.964;2022-08-27T08:37:40;5.43;;;1.80;;
59099;SDS011;44884;52.730;6.964;2022-08-27T08:40:07;7.63;;;2.50;;
59099;SDS011;44884;52.730;6.964;2022-08-27T08:42:43;6.40;;;1.65;;
59099;SDS011;44884;52.730;6.964;2022-08-27T08:45:10;7.65;;;2.22;;
59099;SDS011;44884;52.730;6.964;2022-08-27T08:47:44;5.53;;;1.70;;
59099;SDS011;44884;52.730;6.964;2022-08-27T08:50:13;4.82;;;1.38;;
59099;SDS011;44884;52.730;6.964;2022-08-27T08:55:28;3.88;;;1.73;;
59099;SDS011;44884;52.730;6.964;2022-08-27T08:57:59;9.05;;;1.27;;
59099;SDS011;44884;52.730;6.964;2022-08-27T09:00:29;15.10;;;1.40;;
59099;SDS011;44884;52.730;6.964;2022-08-27T09:02:55;9.50;;;1.77;;
59099;SDS011;44884;52.730;6.964;2022-08-27T09:05:22;7.53;;;1.50;;
59099;SDS011;44884;52.730;6.964;2022-08-27T09:08:04;1.98;;;1.20;;
59099;SDS011;44884;52.730;6.964;2022-08-27T09:13:18;3.83;;;1.10;;
59099;SDS011;44884;52.730;6.964;2022-08-27T09:15:46;5.50;;;2.25;;
59099;SDS011;44884;52.730;6.964;2022-08-27T09:18:13;5.97;;;1.45;;
59099;SDS011;44884;52.730;6.964;2022-08-27T09:20:39;3.53;;;2.05;;
59099;SDS011;44884;52.730;6.964;2022-08-27T09:23:09;4.80;;;1.50;;
59099;SDS011;44884;52.730;6.964;2022-08-27T09:25:39;7.13;;;2.15;;
59099;SDS011;44884;52.730;6.964;2022-08-27T09:28:11;7.03;;;2.30;;
59099;SDS011;44884;52.730;6.964;2022-08-27T09:31:13;13.43;;;3.40;;
59099;SDS011;44884;52.730;6.964;2022-08-27T09:33:40;4.72;;;2.10;;
59099;SDS011;44884;52.730;6.964;2022-08-27T09:36:08;8.05;;;2.25;;
59099;SDS011;44884;52.730;6.964;2022-08-27T09:38:34;4.32;;;2.17;;
59099;SDS011;44884;52.730;6.964;2022-08-27T09:41:04;6.07;;;2.20;;
59099;SDS011;44884;52.730;6.964;2022-08-27T09:43:31;5.93;;;2.50;;
59099;SDS011;44884;52.730;6.964;2022-08-27T09:45:59;7.22;;;2.53;;
59099;SDS011;44884;52.730;6.964;2022-08-27T09:48:29;7.82;;;2.72;;
59099;SDS011;44884;52.730;6.964;2022-08-27T09:50:57;5.43;;;2.45;;
59099;SDS011;44884;52.730;6.964;2022-08-27T09:53:28;7.97;;;2.40;;
59099;SDS011;44884;52.730;6.964;2022-08-27T09:55:59;9.00;;;2.70;;
59099;SDS011;44884;52.730;6.964;2022-08-27T10:01:47;8.75;;;2.40;;
59099;SDS011;44884;52.730;6.964;2022-08-27T10:03:43;5.38;;;2.22;;
59099;SDS011;44884;52.730;6.964;2022-08-27T10:06:09;6.53;;;2.63;;
59099;SDS011;44884;52.730;6.964;2022-08-27T10:08:37;6.55;;;2.75;;
59099;SDS011;44884;52.730;6.964;2022-08-27T10:11:28;4.97;;;1.90;;
59099;SDS011;44884;52.730;6.964;2022-08-27T10:14:05;6.15;;;1.95;;
59099;SDS011;44884;52.730;6.964;2022-08-27T10:16:44;3.88;;;1.92;;
59099;SDS011;44884;52.730;6.964;2022-08-27T10:21:58;3.47;;;1.85;;
59099;SDS011;44884;52.730;6.964;2022-08-27T10:29:27;3.35;;;2.03;;
59099;SDS011;44884;52.730;6.964;2022-08-27T10:37:16;5.45;;;2.25;;
59099;SDS011;44884;52.730;6.964;2022-08-27T10:40:03;11.27;;;2.40;;
59099;SDS011;44884;52.730;6.964;2022-08-27T10:42:36;4.55;;;2.00;;
59099;SDS011;44884;52.730;6.964;2022-08-27T10:47:48;3.72;;;1.70;;
59099;SDS011;44884;52.730;6.964;2022-08-27T10:53:08;4.65;;;1.65;;
59099;SDS011;44884;52.730;6.964;2022-08-27T10:55:37;3.15;;;1.50;;
59099;SDS011;44884;52.730;6.964;2022-08-27T11:00:57;2.92;;;1.67;;
59099;SDS011;44884;52.730;6.964;2022-08-27T11:03:27;3.78;;;2.00;;
59099;SDS011;44884;52.730;6.964;2022-08-27T11:05:55;5.50;;;1.73;;
59099;SDS011;44884;52.730;6.964;2022-08-27T11:08:43;6.05;;;1.98;;
59099;SDS011;44884;52.730;6.964;2022-08-27T11:11:16;3.08;;;1.77;;
59099;SDS011;44884;52.730;6.964;2022-08-27T11:13:46;3.53;;;1.85;;
59099;SDS011;44884;52.730;6.964;2022-08-27T11:19:15;4.43;;;1.73;;
59099;SDS011;44884;52.730;6.964;2022-08-27T11:21:47;3.03;;;1.50;;
59099;SDS011;44884;52.730;6.964;2022-08-27T11:24:25;3.10;;;2.10;;
59099;SDS011;44884;52.730;6.964;2022-08-27T11:26:54;7.07;;;2.05;;
59099;SDS011;44884;52.730;6.964;2022-08-27T11:29:25;6.75;;;1.40;;
59099;SDS011;44884;52.730;6.964;2022-08-27T11:32:02;2.50;;;1.60;;
59099;SDS011;44884;52.730;6.964;2022-08-27T11:37:07;3.97;;;1.92;;
59099;SDS011;44884;52.730;6.964;2022-08-27T11:44:38;2.70;;;1.20;;
59099;SDS011;44884;52.730;6.964;2022-08-27T11:47:07;6.30;;;1.77;;
59099;SDS011;44884;52.730;6.964;2022-08-27T11:49:45;3.80;;;1.70;;
59099;SDS011;44884;52.730;6.964;2022-08-27T11:52:19;4.78;;;1.60;;
59099;SDS011;44884;52.730;6.964;2022-08-27T11:54:47;2.13;;;1.33;;
59099;SDS011;44884;52.730;6.964;2022-08-27T11:57:14;3.40;;;1.50;;
59099;SDS011;44884;52.730;6.964;2022-08-27T11:59:40;3.60;;;1.58;;
59099;SDS011;44884;52.730;6.964;2022-08-27T12:02:17;3.35;;;1.50;;
59099;SDS011;44884;52.730;6.964;2022-08-27T12:04:45;4.00;;;1.80;;
59099;SDS011;44884;52.730;6.964;2022-08-27T12:15:18;4.25;;;1.50;;
59099;SDS011;44884;52.730;6.964;2022-08-27T12:23:22;3.42;;;1.50;;
59099;SDS011;44884;52.730;6.964;2022-08-27T12:26:15;2.05;;;1.45;;
59099;SDS011;44884;52.730;6.964;2022-08-27T12:28:41;3.22;;;1.42;;
59099;SDS011;44884;52.730;6.964;2022-08-27T12:31:07;2.95;;;1.33;;
59099;SDS011;44884;52.730;6.964;2022-08-27T12:33:40;3.05;;;1.45;;
59099;SDS011;44884;52.730;6.964;2022-08-27T12:36:13;1.98;;;1.30;;
59099;SDS011;44884;52.730;6.964;2022-08-27T12:38:43;2.22;;;1.77;;
59099;SDS011;44884;52.730;6.964;2022-08-27T12:41:09;3.47;;;1.63;;
59099;SDS011;44884;52.730;6.964;2022-08-27T12:43:36;5.72;;;1.45;;
59099;SDS011;44884;52.730;6.964;2022-08-27T12:48:40;3.83;;;1.27;;
59099;SDS011;44884;52.730;6.964;2022-08-27T12:53:48;1.75;;;1.30;;
59099;SDS011;44884;52.730;6.964;2022-08-27T12:56:24;1.73;;;1.38;;
59099;SDS011;44884;52.730;6.964;2022-08-27T12:59:02;2.67;;;1.40;;
59099;SDS011;44884;52.730;6.964;2022-08-27T13:04:24;1.83;;;1.35;;
59099;SDS011;44884;52.730;6.964;2022-08-27T13:06:52;1.50;;;1.25;;
59099;SDS011;44884;52.730;6.964;2022-08-27T13:09:31;3.92;;;1.25;;
59099;SDS011;44884;52.730;6.964;2022-08-27T13:11:58;7.18;;;2.28;;
59099;SDS011;44884;52.730;6.964;2022-08-27T13:14:27;6.22;;;1.63;;
59099;SDS011;44884;52.730;6.964;2022-08-27T13:19:26;4.38;;;1.95;;
59099;SDS011;44884;52.730;6.964;2022-08-27T13:21:53;8.32;;;1.50;;
59099;SDS011;44884;52.730;6.964;2022-08-27T13:24:20;4.72;;;1.35;;
59099;SDS011;44884;52.730;6.964;2022-08-27T13:26:51;3.13;;;1.50;;
59099;SDS011;44884;52.730;6.964;2022-08-27T13:29:18;4.47;;;1.50;;
59099;SDS011;44884;52.730;6.964;2022-08-27T13:31:44;4.88;;;1.13;;
59099;SDS011;44884;52.730;6.964;2022-08-27T13:34:14;5.07;;;1.20;;
59099;SDS011;44884;52.730;6.964;2022-08-27T13:39:15;11.93;;;1.73;;
59099;SDS011;44884;52.730;6.964;2022-08-27T13:41:41;14.32;;;2.40;;
59099;SDS011;44884;52.730;6.964;2022-08-27T13:44:10;9.77;;;2.20;;
59099;SDS011;44884;52.730;6.964;2022-08-27T13:46:43;7.57;;;1.83;;
59099;SDS011;44884;52.730;6.964;2022-08-27T13:51:36;9.75;;;2.20;;
59099;SDS011;44884;52.730;6.964;2022-08-27T13:54:07;7.10;;;1.83;;
59099;SDS011;44884;52.730;6.964;2022-08-27T13:56:54;8.73;;;2.42;;
59099;SDS011;44884;52.730;6.964;2022-08-27T13:59:23;10.07;;;3.20;;
59099;SDS011;44884;52.730;6.964;2022-08-27T14:02:25;9.07;;;2.00;;
59099;SDS011;44884;52.730;6.964;2022-08-27T14:04:46;13.83;;;2.00;;
59099;SDS011;44884;52.730;6.964;2022-08-27T14:07:14;10.00;;;2.15;;
59099;SDS011;44884;52.730;6.964;2022-08-27T14:09:46;9.07;;;2.15;;
59099;SDS011;44884;52.730;6.964;2022-08-27T14:12:22;10.45;;;2.08;;
59099;SDS011;44884;52.730;6.964;2022-08-27T14:14:50;9.10;;;2.85;;
59099;SDS011;44884;52.730;6.964;2022-08-27T14:17:20;24.50;;;3.63;;
59099;SDS011;44884;52.730;6.964;2022-08-27T14:19:46;14.05;;;2.83;;
59099;SDS011;44884;52.730;6.964;2022-08-27T14:22:13;12.82;;;3.25;;
59099;SDS011;44884;52.730;6.964;2022-08-27T14:24:39;10.52;;;3.03;;
59099;SDS011;44884;52.730;6.964;2022-08-27T14:27:09;10.35;;;2.65;;
59099;SDS011;44884;52.730;6.964;2022-08-27T14:29:35;24.50;;;3.70;;
59099;SDS011;44884;52.730;6.964;2022-08-27T14:32:01;10.43;;;3.15;;
59099;SDS011;44884;52.730;6.964;2022-08-27T14:34:27;5.25;;;2.20;;
59099;SDS011;44884;52.730;6.964;2022-08-27T14:36:53;20.20;;;3.15;;
59099;SDS011;44884;52.730;6.964;2022-08-27T14:39:20;10.65;;;2.40;;
59099;SDS011;44884;52.730;6.964;2022-08-27T14:41:46;29.08;;;3.15;;
59099;SDS011;44884;52.730;6.964;2022-08-27T14:44:12;10.48;;;2.85;;
59099;SDS011;44884;52.730;6.964;2022-08-27T14:46:38;13.32;;;2.90;;
59099;SDS011;44884;52.730;6.964;2022-08-27T14:49:06;10.05;;;2.05;;
59099;SDS011;44884;52.730;6.964;2022-08-27T14:51:34;12.65;;;2.60;;
59099;SDS011;44884;52.730;6.964;2022-08-27T14:54:02;13.38;;;2.72;;
59099;SDS011;44884;52.730;6.964;2022-08-27T14:56:28;12.65;;;2.55;;
59099;SDS011;44884;52.730;6.964;2022-08-27T14:58:54;15.57;;;2.90;;
59099;SDS011;44884;52.730;6.964;2022-08-27T15:01:21;14.40;;;2.75;;
59099;SDS011;44884;52.730;6.964;2022-08-27T15:03:48;24.25;;;3.13;;
59099;SDS011;44884;52.730;6.964;2022-08-27T15:06:15;7.97;;;2.20;;
59099;SDS011;44884;52.730;6.964;2022-08-27T15:08:42;7.40;;;2.22;;
59099;SDS011;44884;52.730;6.964;2022-08-27T15:11:13;13.88;;;3.00;;
59099;SDS011;44884;52.730;6.964;2022-08-27T15:13:40;12.20;;;1.90;;
59099;SDS011;44884;52.730;6.964;2022-08-27T15:16:06;12.90;;;2.88;;
59099;SDS011;44884;52.730;6.964;2022-08-27T15:18:32;11.00;;;2.00;;
59099;SDS011;44884;52.730;6.964;2022-08-27T15:20:58;11.60;;;2.40;;
59099;SDS011;44884;52.730;6.964;2022-08-27T15:23:25;5.70;;;1.92;;
59099;SDS011;44884;52.730;6.964;2022-08-27T15:25:51;2.70;;;1.05;;
59099;SDS011;44884;52.730;6.964;2022-08-27T15:28:17;7.68;;;2.08;;
59099;SDS011;44884;52.730;6.964;2022-08-27T15:30:43;2.15;;;1.35;;
59099;SDS011;44884;52.730;6.964;2022-08-27T15:33:09;4.63;;;1.35;;
59099;SDS011;44884;52.730;6.964;2022-08-27T15:35:35;6.35;;;1.55;;
59099;SDS011;44884;52.730;6.964;2022-08-27T15:38:01;4.90;;;1.58;;
59099;SDS011;44884;52.730;6.964;2022-08-27T15:40:28;5.18;;;2.03;;
59099;SDS011;44884;52.730;6.964;2022-08-27T15:43:00;5.63;;;1.40;;
59099;SDS011;44884;52.730;6.964;2022-08-27T15:45:27;6.47;;;2.25;;
59099;SDS011;44884;52.730;6.964;2022-08-27T15:47:53;4.47;;;1.90;;
59099;SDS011;44884;52.730;6.964;2022-08-27T15:50:19;8.93;;;2.05;;
59099;SDS011;44884;52.730;6.964;2022-08-27T15:52:46;3.00;;;1.38;;
59099;SDS011;44884;52.730;6.964;2022-08-27T15:55:20;2.35;;;1.40;;
59099;SDS011;44884;52.730;6.964;2022-08-27T15:57:46;10.20;;;1.83;;
59099;SDS011;44884;52.730;6.964;2022-08-27T16:00:12;4.90;;;2.00;;
59099;SDS011;44884;52.730;6.964;2022-08-27T16:02:40;4.38;;;1.98;;
59099;SDS011;44884;52.730;6.964;2022-08-27T16:05:08;5.25;;;1.63;;
59099;SDS011;44884;52.730;6.964;2022-08-27T16:07:34;4.25;;;1.58;;